Stations météo

Publicité
Wisley, Grande-Bretagne (99080): Température de l'air & dewpoint: 19.11.2020 22:00:00 - 25.11.2020 22:00:00 (GMT)Wisley, Grande-Bretagne (99080): Température de l'air -20cm: 19.11.2020 22:00:00 - 25.11.2020 22:00:00 (GMT)Wisley, Grande-Bretagne (99080): Vitesse du vent: 19.11.2020 22:00:00 - 25.11.2020 22:00:00 (GMT)Wisley, Grande-Bretagne (99080): Direction du vent: 19.11.2020 22:00:00 - 25.11.2020 22:00:00 (GMT)Wisley, Grande-Bretagne (99080): Quantités de précipitations: 19.11.2020 22:00:00 - 25.11.2020 22:00:00 (GMT)
Date & Time tt [°C] td [°C] tt -20cm [°C] ff [km/h] ff [knt] dd rr [mm]
25.11.2020 22:00:00 4,8 4,0 - 2 1 N 0,0
25.11.2020 21:00:00 6,2 4,4 - 2 1 N 0,0
25.11.2020 20:00:00 8,0 5,7 - 5 3 NNW 0,0
25.11.2020 19:00:00 8,4 6,3 - 8 4 NNW 0,0
25.11.2020 18:00:00 8,5 6,5 - 9 5 NNW 0,0
25.11.2020 17:00:00 8,7 6,7 - 4 2 NW 0,0
25.11.2020 16:00:00 9,4 7,1 - 9 5 NNW 0,0
25.11.2020 15:00:00 9,9 8,0 - 15 8 NW 0,0
25.11.2020 14:00:00 12,5 9,8 - 11 6 W 0,0
25.11.2020 13:00:00 13,6 10,9 - 13 7 SW 0,0
25.11.2020 12:00:00 13,1 11,4 - 9 5 SSW 0,0
25.11.2020 11:00:00 12,4 11,2 - 13 7 S 0,2
25.11.2020 10:00:00 12,3 10,9 - 15 8 S 0,0
25.11.2020 09:00:00 12,0 10,6 9,4 15 8 S 0,0
25.11.2020 08:00:00 11,5 10,3 - 15 8 S 0,0
25.11.2020 07:00:00 11,2 10,0 - 13 7 S 0,0
25.11.2020 06:00:00 10,9 9,5 - 11 6 S 0,0
25.11.2020 05:00:00 10,6 9,0 - 16 9 S 0,0
25.11.2020 04:00:00 9,9 8,3 - 13 7 S 0,0
25.11.2020 03:00:00 10,1 8,2 - 9 5 S 0,0
25.11.2020 02:00:00 10,4 8,5 - 13 7 SSE 0,0
25.11.2020 01:00:00 10,6 8,6 - 13 7 S 0,0
25.11.2020 00:00:00 10,2 8,1 - 13 7 S 0,0
24.11.2020 23:00:00 10,1 7,9 - 11 6 S 0,0
24.11.2020 22:00:00 9,5 7,6 - 13 7 S 0,0
24.11.2020 21:00:00 9,5 8,0 - 13 7 SSE 0,0
24.11.2020 20:00:00 9,1 7,8 - 9 5 SSE 0,0
24.11.2020 19:00:00 9,7 7,9 - 13 7 S 0,0
24.11.2020 18:00:00 10,0 7,9 - 18 10 S 0,0
24.11.2020 17:00:00 9,7 7,7 - 13 7 S 0,0
24.11.2020 16:00:00 10,2 7,3 - 11 6 SSE 0,0
24.11.2020 15:00:00 10,8 7,0 - 15 8 S 0,0
24.11.2020 14:00:00 11,7 7,0 - 16 9 S 0,0
24.11.2020 13:00:00 11,8 7,6 - 15 8 S 0,0
24.11.2020 12:00:00 11,4 7,1 - 16 9 S 0,0
24.11.2020 11:00:00 10,8 7,2 - 15 8 SSW 0,0
24.11.2020 10:00:00 11,3 7,1 - 18 10 SSW 0,0
24.11.2020 09:00:00 10,5 8,0 9,2 15 8 S 0,0
24.11.2020 08:00:00 10,5 8,1 - 13 7 S 0,0
24.11.2020 07:00:00 10,7 8,2 - 13 7 S 0,0
24.11.2020 06:00:00 10,9 8,1 - 9 5 S 0,0
24.11.2020 05:00:00 11,0 8,8 - 11 6 SSW 0,0
24.11.2020 04:00:00 10,9 9,2 - 9 5 S 0,0
24.11.2020 03:00:00 10,8 9,0 - 9 5 S 0,0
24.11.2020 02:00:00 10,6 8,9 - 9 5 S 0,0
24.11.2020 01:00:00 10,7 8,8 - 11 6 S 0,0
24.11.2020 00:00:00 10,6 8,7 - 13 7 S 0,0
23.11.2020 23:00:00 9,5 8,4 - 9 5 S 0,0
23.11.2020 22:00:00 9,0 8,0 - 11 6 S 0,0
23.11.2020 21:00:00 9,0 7,8 - 9 5 SSW 0,0
23.11.2020 20:00:00 9,2 8,0 - 11 6 S 0,0
23.11.2020 19:00:00 9,3 7,7 - 8 4 SW 0,0
23.11.2020 18:00:00 9,1 7,1 - 8 4 S 0,0
23.11.2020 17:00:00 9,5 7,1 - 9 5 S 0,0
23.11.2020 16:00:00 9,3 7,0 - 8 4 S 0,0
23.11.2020 15:00:00 9,6 6,8 - 9 5 S 0,0
23.11.2020 14:00:00 9,5 7,2 - 8 4 SSW 0,0
23.11.2020 13:00:00 9,2 6,9 - 11 6 SSW 0,0
23.11.2020 12:00:00 7,3 7,2 - 2 1 WSW 0,0
23.11.2020 11:00:00 5,1 5,1 - 0 0 N 0,0
23.11.2020 10:00:00 3,9 3,9 - 4 2 WSW 0,0
23.11.2020 09:00:00 2,4 2,4 9,0 2 1 NE 0,0
23.11.2020 08:00:00 1,1 1,0 - 4 2 S 0,0
23.11.2020 07:00:00 0,7 0,6 - 4 2 N 0,0
23.11.2020 06:00:00 0,6 0,4 - 4 2 SSW 0,0
23.11.2020 05:00:00 0,8 0,5 - 8 4 SSE 0,0
23.11.2020 04:00:00 1,8 1,5 - 4 2 S 0,0
23.11.2020 03:00:00 2,3 1,9 - 0 0 N 0,0
23.11.2020 02:00:00 3,3 2,7 - 2 1 SSW 0,0
23.11.2020 01:00:00 5,1 4,3 - 2 1 SSW 0,0
23.11.2020 00:00:00 5,8 4,5 - 4 2 SSW 0,0
22.11.2020 23:00:00 6,3 5,1 - 2 1 SW 0,0
22.11.2020 22:00:00 6,4 4,7 - 2 1 SSW 0,0
22.11.2020 21:00:00 6,5 4,0 - 4 2 WSW 0,0
22.11.2020 20:00:00 7,7 4,1 - 4 2 WNW 0,0
22.11.2020 19:00:00 8,2 3,9 - 4 2 W 0,0
22.11.2020 18:00:00 9,2 4,3 - 5 3 NW 0,0
22.11.2020 17:00:00 9,9 5,1 - 5 3 WNW 0,0
22.11.2020 16:00:00 10,3 4,8 - 8 4 WNW 0,0
22.11.2020 15:00:00 10,9 4,7 - 5 3 W 0,0
22.11.2020 14:00:00 10,9 5,4 - 4 2 WNW 0,0
22.11.2020 13:00:00 11,5 5,8 - 11 6 NNW 0,0
22.11.2020 12:00:00 11,3 7,1 - 8 4 NW 0,0
22.11.2020 11:00:00 10,2 7,8 - 5 3 NW 0,0
22.11.2020 10:00:00 10,0 9,0 - 4 2 NW 0,0
22.11.2020 09:00:00 9,5 9,3 9,9 4 2 W 0,0
22.11.2020 08:00:00 8,9 8,5 - 2 1 WSW 0,0
22.11.2020 07:00:00 9,5 8,9 - 2 1 WSW 0,0
22.11.2020 06:00:00 10,4 9,7 - 0 0 N 0,0
22.11.2020 05:00:00 10,8 9,9 - 5 3 WSW 0,0
22.11.2020 04:00:00 11,2 9,6 - 9 5 WSW 0,0
22.11.2020 03:00:00 11,3 9,3 - 13 7 WSW 0,0
22.11.2020 02:00:00 11,3 9,3 - 11 6 SW 0,0
22.11.2020 01:00:00 11,1 9,1 - 15 8 SW 0,0
22.11.2020 00:00:00 10,6 8,8 - 11 6 SW 0,0
21.11.2020 23:00:00 10,9 8,8 - 13 7 SW 0,0
21.11.2020 22:00:00 11,0 8,7 - 11 6 SW 0,0
21.11.2020 21:00:00 10,9 8,7 - 13 7 SW 0,0
21.11.2020 20:00:00 10,4 8,6 - 13 7 SW 0,0
21.11.2020 19:00:00 10,5 8,4 - 11 6 SW 0,0
21.11.2020 18:00:00 11,0 8,1 - 13 7 SW 0,0
21.11.2020 17:00:00 11,4 8,1 - 11 6 SW 0,0
21.11.2020 16:00:00 11,6 7,9 - 11 6 SW 0,0
21.11.2020 15:00:00 11,8 7,6 - 18 10 SW 0,0
21.11.2020 14:00:00 11,6 7,9 - 15 8 WSW 0,0
21.11.2020 13:00:00 11,7 7,6 - 9 5 W 0,0
21.11.2020 12:00:00 12,0 7,2 - 18 10 WSW 0,0
21.11.2020 11:00:00 12,0 7,6 - 16 9 SW 0,0
21.11.2020 10:00:00 11,6 7,2 - 15 8 WSW 0,0
21.11.2020 09:00:00 10,9 8,1 9,2 15 8 SW 0,0
21.11.2020 08:00:00 10,5 8,2 - 15 8 WSW 0,0
21.11.2020 07:00:00 9,8 8,9 - 11 6 SW 0,0
21.11.2020 06:00:00 9,8 8,6 - 15 8 SW 0,0
21.11.2020 05:00:00 10,2 8,3 - 18 10 WSW 0,0
21.11.2020 04:00:00 10,4 7,7 - 18 10 WSW 0,0
21.11.2020 03:00:00 10,3 7,6 - 18 10 SW 0,0
21.11.2020 02:00:00 10,3 7,9 - 13 7 SW 0,0
21.11.2020 01:00:00 10,6 8,5 - 15 8 SW 0,0
21.11.2020 00:00:00 10,5 8,7 - 15 8 SW 0,0
20.11.2020 23:00:00 10,5 9,2 - 13 7 SW 0,0
20.11.2020 22:00:00 10,6 9,7 - 15 8 SW 0,0
20.11.2020 21:00:00 10,4 9,5 - 13 7 SSW 0,0
20.11.2020 20:00:00 10,2 9,4 - 13 7 SW 0,0
20.11.2020 19:00:00 10,0 9,2 - 11 6 SW 0,0
20.11.2020 18:00:00 9,5 9,0 - 11 6 SSW 0,0
20.11.2020 17:00:00 9,3 8,9 - 9 5 S 0,2
20.11.2020 16:00:00 9,1 8,6 - 9 5 S 0,0
20.11.2020 15:00:00 8,9 8,3 - 11 6 S 0,2
20.11.2020 14:00:00 8,7 7,9 - 13 7 S 0,0
20.11.2020 13:00:00 8,3 6,9 - 11 6 S 0,2
20.11.2020 12:00:00 7,8 5,6 - 11 6 S 0,2
20.11.2020 11:00:00 7,7 4,7 - 9 5 S 0,2
20.11.2020 10:00:00 6,1 5,8 - 5 3 SSW 0,0
20.11.2020 09:00:00 2,5 2,5 8,7 4 2 S 0,0
20.11.2020 08:00:00 1,2 1,2 - 4 2 SW 0,0
20.11.2020 07:00:00 0,7 0,7 - 5 3 WSW 0,0
20.11.2020 06:00:00 0,0 0,0 - 2 1 SSW 0,0
20.11.2020 05:00:00 -0,6 -0,7 - 4 2 SSW 0,0
20.11.2020 04:00:00 -0,7 -0,8 - 5 3 S 0,0
20.11.2020 03:00:00 0,8 0,6 - 4 2 WSW 0,0
20.11.2020 02:00:00 1,0 0,9 - 4 2 SSW 0,0
20.11.2020 01:00:00 0,8 0,5 - 5 3 SSW 0,0
20.11.2020 00:00:00 1,5 1,2 - 4 2 SSW 0,0
19.11.2020 23:00:00 0,9 -0,1 - 5 3 S 0,0
19.11.2020 22:00:00 3,3 2,2 - 5 3 WNW 0,0

tt = Température de l'air
td = dewpoint
tt -20cm = Température de l'air -20cm
ff = Vitesse du vent
dd = Direction du vent
rr = Quantités de précipitations

stations d'obs. à proximité